sensor_id;sensor_type;location;lat;lon;timestamp;P1;P2;P0
46302;PMS7003;32029;51.358;5.628;2024-01-30T00:00:50;19.33;18.33;13.00
46302;PMS7003;32029;51.358;5.628;2024-01-30T00:03:18;20.00;19.50;14.50
46302;PMS7003;32029;51.358;5.628;2024-01-30T00:05:45;23.00;21.00;15.00
46302;PMS7003;32029;51.358;5.628;2024-01-30T00:08:11;20.00;20.00;14.00
46302;PMS7003;32029;51.358;5.628;2024-01-30T00:10:38;15.33;15.33;12.00
46302;PMS7003;32029;51.358;5.628;2024-01-30T00:13:05;18.00;18.00;13.33
46302;PMS7003;32029;51.358;5.628;2024-01-30T00:15:32;18.00;18.00;14.00
46302;PMS7003;32029;51.358;5.628;2024-01-30T00:17:59;19.50;19.00;14.00
46302;PMS7003;32029;51.358;5.628;2024-01-30T00:20:26;18.00;16.00;14.00
46302;PMS7003;32029;51.358;5.628;2024-01-30T00:22:53;24.00;20.00;14.67
46302;PMS7003;32029;51.358;5.628;2024-01-30T00:25:20;20.67;20.00;15.33
46302;PMS7003;32029;51.358;5.628;2024-01-30T00:27:47;20.00;18.50;13.50
46302;PMS7003;32029;51.358;5.628;2024-01-30T00:30:14;21.33;18.67;12.33
46302;PMS7003;32029;51.358;5.628;2024-01-30T00:32:41;22.00;19.33;14.67
46302;PMS7003;32029;51.358;5.628;2024-01-30T00:35:08;15.00;15.00;11.33
46302;PMS7003;32029;51.358;5.628;2024-01-30T00:37:36;22.00;22.00;17.00
46302;PMS7003;32029;51.358;5.628;2024-01-30T00:40:03;18.00;18.00;13.00
46302;PMS7003;32029;51.358;5.628;2024-01-30T00:42:32;20.00;18.00;13.50
46302;PMS7003;32029;51.358;5.628;2024-01-30T00:44:59;20.33;18.00;14.00
46302;PMS7003;32029;51.358;5.628;2024-01-30T00:47:26;18.00;18.00;13.00
46302;PMS7003;32029;51.358;5.628;2024-01-30T00:49:53;20.00;19.50;12.00
46302;PMS7003;32029;51.358;5.628;2024-01-30T00:52:20;17.33;15.67;11.00
46302;PMS7003;32029;51.358;5.628;2024-01-30T00:54:46;19.33;19.00;14.67
46302;PMS7003;32029;51.358;5.628;2024-01-30T00:57:13;14.00;14.00;12.00
46302;PMS7003;32029;51.358;5.628;2024-01-30T00:59:41;21.33;20.67;15.00
46302;PMS7003;32029;51.358;5.628;2024-01-30T01:02:08;22.67;21.00;13.00
46302;PMS7003;32029;51.358;5.628;2024-01-30T01:04:35;19.00;16.00;13.00
46302;PMS7003;32029;51.358;5.628;2024-01-30T01:07:02;19.67;17.67;13.00
46302;PMS7003;32029;51.358;5.628;2024-01-30T01:09:29;26.50;21.00;13.50
46302;PMS7003;32029;51.358;5.628;2024-01-30T01:12:02;17.00;16.67;13.00
46302;PMS7003;32029;51.358;5.628;2024-01-30T01:14:30;19.67;18.00;14.33
46302;PMS7003;32029;51.358;5.628;2024-01-30T01:16:58;20.33;19.33;15.00
46302;PMS7003;32029;51.358;5.628;2024-01-30T01:19:25;22.00;21.00;14.00
46302;PMS7003;32029;51.358;5.628;2024-01-30T01:21:52;18.00;18.00;14.00
46302;PMS7003;32029;51.358;5.628;2024-01-30T01:24:19;21.67;19.67;14.00
46302;PMS7003;32029;51.358;5.628;2024-01-30T01:26:46;24.00;18.00;13.00
46302;PMS7003;32029;51.358;5.628;2024-01-30T01:29:13;19.33;18.33;13.33
46302;PMS7003;32029;51.358;5.628;2024-01-30T01:31:42;19.00;19.00;14.00
46302;PMS7003;32029;51.358;5.628;2024-01-30T01:34:12;20.00;19.00;13.50
46302;PMS7003;32029;51.358;5.628;2024-01-30T01:36:39;19.67;15.67;10.67
46302;PMS7003;32029;51.358;5.628;2024-01-30T01:39:06;20.67;19.00;13.00
46302;PMS7003;32029;51.358;5.628;2024-01-30T01:41:33;19.00;16.67;12.00
46302;PMS7003;32029;51.358;5.628;2024-01-30T01:44:00;20.50;20.50;13.50
46302;PMS7003;32029;51.358;5.628;2024-01-30T01:46:27;17.50;17.50;13.50
46302;PMS7003;32029;51.358;5.628;2024-01-30T01:48:59;20.33;19.00;14.00
46302;PMS7003;32029;51.358;5.628;2024-01-30T01:51:27;17.33;17.00;12.00
46302;PMS7003;32029;51.358;5.628;2024-01-30T01:53:56;13.67;10.67;10.00
46302;PMS7003;32029;51.358;5.628;2024-01-30T01:56:24;15.67;14.33;10.00
46302;PMS7003;32029;51.358;5.628;2024-01-30T01:58:54;20.00;18.67;13.00
46302;PMS7003;32029;51.358;5.628;2024-01-30T02:01:21;20.00;19.00;13.00
46302;PMS7003;32029;51.358;5.628;2024-01-30T02:03:51;20.00;18.00;12.50
46302;PMS7003;32029;51.358;5.628;2024-01-30T02:06:20;18.00;16.67;10.00
46302;PMS7003;32029;51.358;5.628;2024-01-30T02:08:47;19.50;18.00;14.00
46302;PMS7003;32029;51.358;5.628;2024-01-30T02:11:14;18.00;18.00;13.00
46302;PMS7003;32029;51.358;5.628;2024-01-30T02:13:42;20.67;18.67;14.00
46302;PMS7003;32029;51.358;5.628;2024-01-30T02:16:09;12.33;12.33;9.00
46302;PMS7003;32029;51.358;5.628;2024-01-30T02:18:37;20.50;16.00;13.00
46302;PMS7003;32029;51.358;5.628;2024-01-30T02:21:08;21.00;19.00;14.00
46302;PMS7003;32029;51.358;5.628;2024-01-30T02:23:37;20.00;15.50;13.00
46302;PMS7003;32029;51.358;5.628;2024-01-30T02:26:04;21.00;20.00;13.00
46302;PMS7003;32029;51.358;5.628;2024-01-30T02:28:31;17.33;17.33;14.00
46302;PMS7003;32029;51.358;5.628;2024-01-30T02:30:58;21.67;20.33;14.67
46302;PMS7003;32029;51.358;5.628;2024-01-30T02:33:25;17.67;16.33;12.33
46302;PMS7003;32029;51.358;5.628;2024-01-30T02:35:52;15.33;14.00;13.00
46302;PMS7003;32029;51.358;5.628;2024-01-30T02:38:19;20.00;17.67;13.00
46302;PMS7003;32029;51.358;5.628;2024-01-30T02:40:45;16.67;14.00;12.33
46302;PMS7003;32029;51.358;5.628;2024-01-30T02:43:12;15.00;14.67;10.00
46302;PMS7003;32029;51.358;5.628;2024-01-30T02:45:39;19.33;19.33;13.33
46302;PMS7003;32029;51.358;5.628;2024-01-30T02:48:06;15.67;14.33;10.67
46302;PMS7003;32029;51.358;5.628;2024-01-30T02:50:33;13.67;13.67;10.67
46302;PMS7003;32029;51.358;5.628;2024-01-30T02:53:00;23.50;22.00;16.00
46302;PMS7003;32029;51.358;5.628;2024-01-30T02:55:27;16.33;15.00;12.00
46302;PMS7003;32029;51.358;5.628;2024-01-30T02:57:54;21.33;19.67;13.33
46302;PMS7003;32029;51.358;5.628;2024-01-30T03:00:20;23.00;20.67;12.67
46302;PMS7003;32029;51.358;5.628;2024-01-30T03:02:48;18.33;16.00;12.00
46302;PMS7003;32029;51.358;5.628;2024-01-30T03:05:14;17.33;16.00;13.00
46302;PMS7003;32029;51.358;5.628;2024-01-30T03:07:41;18.67;17.00;12.00
46302;PMS7003;32029;51.358;5.628;2024-01-30T03:10:08;14.33;14.33;12.00
46302;PMS7003;32029;51.358;5.628;2024-01-30T03:12:35;16.33;15.67;11.67
46302;PMS7003;32029;51.358;5.628;2024-01-30T03:15:03;21.00;21.00;14.67
46302;PMS7003;32029;51.358;5.628;2024-01-30T03:17:30;19.67;19.33;13.00
46302;PMS7003;32029;51.358;5.628;2024-01-30T03:19:57;20.67;19.33;13.67
46302;PMS7003;32029;51.358;5.628;2024-01-30T03:22:23;20.00;16.00;13.33
46302;PMS7003;32029;51.358;5.628;2024-01-30T03:24:52;19.00;16.00;14.00
46302;PMS7003;32029;51.358;5.628;2024-01-30T03:27:18;20.00;18.00;13.50
46302;PMS7003;32029;51.358;5.628;2024-01-30T03:29:45;19.00;18.67;13.00
46302;PMS7003;32029;51.358;5.628;2024-01-30T03:32:12;16.67;16.67;13.00
46302;PMS7003;32029;51.358;5.628;2024-01-30T03:34:39;15.67;15.67;13.00
46302;PMS7003;32029;51.358;5.628;2024-01-30T03:37:06;19.50;16.00;12.50
46302;PMS7003;32029;51.358;5.628;2024-01-30T03:39:33;22.67;19.00;13.67
46302;PMS7003;32029;51.358;5.628;2024-01-30T03:42:00;11.33;11.33;6.33
46302;PMS7003;32029;51.358;5.628;2024-01-30T03:44:26;14.00;14.00;10.00
46302;PMS7003;32029;51.358;5.628;2024-01-30T03:46:53;16.00;16.00;13.00
46302;PMS7003;32029;51.358;5.628;2024-01-30T03:49:20;19.00;15.33;12.00
46302;PMS7003;32029;51.358;5.628;2024-01-30T03:51:47;19.33;19.33;12.00
46302;PMS7003;32029;51.358;5.628;2024-01-30T03:54:14;14.67;14.00;10.00
46302;PMS7003;32029;51.358;5.628;2024-01-30T03:56:40;15.00;14.33;10.00
46302;PMS7003;32029;51.358;5.628;2024-01-30T03:59:08;18.00;15.00;13.33
46302;PMS7003;32029;51.358;5.628;2024-01-30T04:01:35;19.00;16.33;10.00
46302;PMS7003;32029;51.358;5.628;2024-01-30T04:04:02;19.67;18.33;13.00
46302;PMS7003;32029;51.358;5.628;2024-01-30T04:06:28;17.67;17.67;12.67
46302;PMS7003;32029;51.358;5.628;2024-01-30T04:08:55;17.33;17.33;12.00
46302;PMS7003;32029;51.358;5.628;2024-01-30T04:11:22;4.00;4.00;1.00
46302;PMS7003;32029;51.358;5.628;2024-01-30T04:13:49;17.00;15.00;10.00
46302;PMS7003;32029;51.358;5.628;2024-01-30T04:16:19;17.33;17.33;13.00
46302;PMS7003;32029;51.358;5.628;2024-01-30T04:18:48;17.33;15.00;10.00
46302;PMS7003;32029;51.358;5.628;2024-01-30T04:21:15;14.33;12.00;8.00
46302;PMS7003;32029;51.358;5.628;2024-01-30T04:23:41;15.00;13.33;9.67
46302;PMS7003;32029;51.358;5.628;2024-01-30T04:26:08;15.00;15.00;13.00
46302;PMS7003;32029;51.358;5.628;2024-01-30T04:28:35;17.33;15.67;11.33
46302;PMS7003;32029;51.358;5.628;2024-01-30T04:31:02;16.33;16.33;10.33
46302;PMS7003;32029;51.358;5.628;2024-01-30T04:33:29;15.67;14.00;12.00
46302;PMS7003;32029;51.358;5.628;2024-01-30T04:35:56;20.67;19.00;13.00
46302;PMS7003;32029;51.358;5.628;2024-01-30T04:38:22;18.67;17.67;13.00
46302;PMS7003;32029;51.358;5.628;2024-01-30T04:40:49;20.00;14.67;10.00
46302;PMS7003;32029;51.358;5.628;2024-01-30T04:43:16;19.50;18.50;13.00
46302;PMS7003;32029;51.358;5.628;2024-01-30T04:45:43;15.33;15.33;10.67
46302;PMS7003;32029;51.358;5.628;2024-01-30T04:48:10;16.33;15.00;13.00
46302;PMS7003;32029;51.358;5.628;2024-01-30T04:50:37;22.50;15.00;10.00
46302;PMS7003;32029;51.358;5.628;2024-01-30T04:53:04;16.00;14.67;10.00
46302;PMS7003;32029;51.358;5.628;2024-01-30T04:55:31;15.67;14.00;10.67
46302;PMS7003;32029;51.358;5.628;2024-01-30T04:57:57;14.67;14.00;12.00
46302;PMS7003;32029;51.358;5.628;2024-01-30T05:00:24;18.67;14.33;9.67
46302;PMS7003;32029;51.358;5.628;2024-01-30T05:02:51;13.00;13.00;9.00
46302;PMS7003;32029;51.358;5.628;2024-01-30T05:05:18;15.33;14.00;9.00
46302;PMS7003;32029;51.358;5.628;2024-01-30T05:07:45;14.67;13.00;10.67
46302;PMS7003;32029;51.358;5.628;2024-01-30T05:10:11;15.00;15.00;9.00
46302;PMS7003;32029;51.358;5.628;2024-01-30T05:12:39;14.00;12.33;10.00
46302;PMS7003;32029;51.358;5.628;2024-01-30T05:15:06;13.33;13.33;8.67
46302;PMS7003;32029;51.358;5.628;2024-01-30T05:17:33;13.67;13.00;10.00
46302;PMS7003;32029;51.358;5.628;2024-01-30T05:20:00;11.67;11.67;9.00
46302;PMS7003;32029;51.358;5.628;2024-01-30T05:22:27;13.00;13.00;10.00
46302;PMS7003;32029;51.358;5.628;2024-01-30T05:24:53;13.67;12.67;9.67
46302;PMS7003;32029;51.358;5.628;2024-01-30T05:27:20;13.00;13.00;9.67
46302;PMS7003;32029;51.358;5.628;2024-01-30T05:29:47;15.33;12.33;9.00
46302;PMS7003;32029;51.358;5.628;2024-01-30T05:32:14;9.67;9.67;8.00
46302;PMS7003;32029;51.358;5.628;2024-01-30T05:34:41;10.33;10.33;8.33
46302;PMS7003;32029;51.358;5.628;2024-01-30T05:37:09;13.40;11.60;8.60
46302;PMS7003;32029;51.358;5.628;2024-01-30T05:39:35;11.00;10.00;9.00
46302;PMS7003;32029;51.358;5.628;2024-01-30T05:42:02;17.67;16.33;10.00
46302;PMS7003;32029;51.358;5.628;2024-01-30T05:44:29;15.00;11.33;9.00
46302;PMS7003;32029;51.358;5.628;2024-01-30T05:46:56;10.00;10.00;9.33
46302;PMS7003;32029;51.358;5.628;2024-01-30T05:49:23;14.67;11.67;9.00
46302;PMS7003;32029;51.358;5.628;2024-01-30T05:51:52;11.33;10.17;8.83
46302;PMS7003;32029;51.358;5.628;2024-01-30T05:54:19;11.00;11.00;9.00
46302;PMS7003;32029;51.358;5.628;2024-01-30T05:56:47;16.00;12.67;9.00
46302;PMS7003;32029;51.358;5.628;2024-01-30T05:59:14;3.60;3.60;3.40
46302;PMS7003;32029;51.358;5.628;2024-01-30T06:01:48;12.67;12.67;8.67
46302;PMS7003;32029;51.358;5.628;2024-01-30T06:04:15;14.67;12.33;9.00
46302;PMS7003;32029;51.358;5.628;2024-01-30T06:06:42;10.33;10.33;8.67
46302;PMS7003;32029;51.358;5.628;2024-01-30T06:09:08;14.00;13.00;9.00
46302;PMS7003;32029;51.358;5.628;2024-01-30T06:11:35;15.00;12.33;8.67
46302;PMS7003;32029;51.358;5.628;2024-01-30T06:14:02;11.33;11.33;8.00
46302;PMS7003;32029;51.358;5.628;2024-01-30T06:16:29;12.00;10.67;9.00
46302;PMS7003;32029;51.358;5.628;2024-01-30T06:18:56;14.67;13.00;10.00
46302;PMS7003;32029;51.358;5.628;2024-01-30T06:21:23;12.67;11.33;8.67
46302;PMS7003;32029;51.358;5.628;2024-01-30T06:23:51;10.60;10.00;8.80
46302;PMS7003;32029;51.358;5.628;2024-01-30T06:26:18;14.33;12.00;9.67
46302;PMS7003;32029;51.358;5.628;2024-01-30T06:28:45;11.33;10.33;8.33
46302;PMS7003;32029;51.358;5.628;2024-01-30T06:31:12;13.33;13.33;9.67
46302;PMS7003;32029;51.358;5.628;2024-01-30T06:33:39;13.00;11.67;10.00
46302;PMS7003;32029;51.358;5.628;2024-01-30T06:36:05;11.00;11.00;9.00
46302;PMS7003;32029;51.358;5.628;2024-01-30T06:38:32;10.67;10.67;9.00
46302;PMS7003;32029;51.358;5.628;2024-01-30T06:40:59;10.67;9.67;8.00
46302;PMS7003;32029;51.358;5.628;2024-01-30T06:43:26;15.00;12.67;10.00
46302;PMS7003;32029;51.358;5.628;2024-01-30T06:45:53;12.67;12.00;9.67
46302;PMS7003;32029;51.358;5.628;2024-01-30T06:48:20;15.00;15.00;11.00
46302;PMS7003;32029;51.358;5.628;2024-01-30T06:50:47;17.00;11.00;9.00
46302;PMS7003;32029;51.358;5.628;2024-01-30T06:53:14;15.00;13.00;10.00
46302;PMS7003;32029;51.358;5.628;2024-01-30T06:55:41;16.00;11.00;9.00
46302;PMS7003;32029;51.358;5.628;2024-01-30T06:58:09;13.80;12.40;9.00
46302;PMS7003;32029;51.358;5.628;2024-01-30T07:00:37;12.20;10.40;7.60
46302;PMS7003;32029;51.358;5.628;2024-01-30T07:03:04;12.00;11.00;10.00
46302;PMS7003;32029;51.358;5.628;2024-01-30T07:05:31;13.67;12.33;10.00
46302;PMS7003;32029;51.358;5.628;2024-01-30T07:07:59;14.00;10.80;8.60
46302;PMS7003;32029;51.358;5.628;2024-01-30T07:10:26;11.67;9.67;8.00
46302;PMS7003;32029;51.358;5.628;2024-01-30T07:12:53;11.00;9.67;9.00
46302;PMS7003;32029;51.358;5.628;2024-01-30T07:15:20;14.00;10.33;9.67
46302;PMS7003;32029;51.358;5.628;2024-01-30T07:17:47;11.33;11.33;10.33
46302;PMS7003;32029;51.358;5.628;2024-01-30T07:20:14;16.00;13.00;9.00
46302;PMS7003;32029;51.358;5.628;2024-01-30T07:22:41;18.67;13.67;9.33
46302;PMS7003;32029;51.358;5.628;2024-01-30T07:25:08;16.67;15.00;9.67
46302;PMS7003;32029;51.358;5.628;2024-01-30T07:27:35;17.67;15.00;11.00
46302;PMS7003;32029;51.358;5.628;2024-01-30T07:30:02;15.33;12.67;10.00
46302;PMS7003;32029;51.358;5.628;2024-01-30T07:32:29;13.00;11.67;9.67
46302;PMS7003;32029;51.358;5.628;2024-01-30T07:34:56;12.00;12.00;9.67
46302;PMS7003;32029;51.358;5.628;2024-01-30T07:37:23;11.00;10.33;8.00
46302;PMS7003;32029;51.358;5.628;2024-01-30T07:39:49;12.00;12.00;10.00
46302;PMS7003;32029;51.358;5.628;2024-01-30T07:42:16;14.67;14.67;9.00
46302;PMS7003;32029;51.358;5.628;2024-01-30T07:44:44;12.33;12.33;10.00
46302;PMS7003;32029;51.358;5.628;2024-01-30T07:47:10;12.67;12.00;10.00
46302;PMS7003;32029;51.358;5.628;2024-01-30T07:49:40;15.67;15.67;10.67
46302;PMS7003;32029;51.358;5.628;2024-01-30T07:52:07;13.67;12.00;9.00
46302;PMS7003;32029;51.358;5.628;2024-01-30T07:54:34;13.00;10.67;9.33
46302;PMS7003;32029;51.358;5.628;2024-01-30T07:57:01;12.00;12.00;10.00
46302;PMS7003;32029;51.358;5.628;2024-01-30T07:59:28;16.00;15.33;9.33
46302;PMS7003;32029;51.358;5.628;2024-01-30T08:01:55;14.33;11.33;9.33
46302;PMS7003;32029;51.358;5.628;2024-01-30T08:04:22;16.33;15.33;10.00
46302;PMS7003;32029;51.358;5.628;2024-01-30T08:06:49;17.33;16.00;11.00
46302;PMS7003;32029;51.358;5.628;2024-01-30T08:09:15;16.00;12.00;10.00
46302;PMS7003;32029;51.358;5.628;2024-01-30T08:11:42;18.00;14.67;10.33
46302;PMS7003;32029;51.358;5.628;2024-01-30T08:14:09;17.33;13.67;10.00
46302;PMS7003;32029;51.358;5.628;2024-01-30T08:16:36;15.00;13.67;8.67
46302;PMS7003;32029;51.358;5.628;2024-01-30T08:19:03;11.33;11.33;9.33
46302;PMS7003;32029;51.358;5.628;2024-01-30T08:21:30;11.33;11.00;9.00
46302;PMS7003;32029;51.358;5.628;2024-01-30T08:24:03;13.67;10.33;8.00
46302;PMS7003;32029;51.358;5.628;2024-01-30T08:26:31;16.00;13.00;11.00
46302;PMS7003;32029;51.358;5.628;2024-01-30T08:28:58;13.00;13.00;10.00
46302;PMS7003;32029;51.358;5.628;2024-01-30T08:31:25;10.67;10.00;8.33
46302;PMS7003;32029;51.358;5.628;2024-01-30T08:33:52;16.00;13.00;10.00
46302;PMS7003;32029;51.358;5.628;2024-01-30T08:36:19;14.33;12.33;9.33
46302;PMS7003;32029;51.358;5.628;2024-01-30T08:38:46;13.00;11.67;9.00
46302;PMS7003;32029;51.358;5.628;2024-01-30T08:41:13;17.00;15.33;10.00
46302;PMS7003;32029;51.358;5.628;2024-01-30T08:43:40;15.67;12.67;10.33
46302;PMS7003;32029;51.358;5.628;2024-01-30T08:46:07;20.67;14.00;11.00
46302;PMS7003;32029;51.358;5.628;2024-01-30T08:48:35;15.00;15.00;10.00
46302;PMS7003;32029;51.358;5.628;2024-01-30T08:51:03;13.00;13.00;9.00
46302;PMS7003;32029;51.358;5.628;2024-01-30T08:53:34;16.67;15.33;10.67
46302;PMS7003;32029;51.358;5.628;2024-01-30T08:56:02;12.67;10.67;6.00
46302;PMS7003;32029;51.358;5.628;2024-01-30T08:58:30;14.67;13.00;11.00
46302;PMS7003;32029;51.358;5.628;2024-01-30T09:00:57;14.33;13.00;10.67
46302;PMS7003;32029;51.358;5.628;2024-01-30T09:03:23;15.33;13.00;9.00
46302;PMS7003;32029;51.358;5.628;2024-01-30T09:05:50;13.00;12.67;9.33
46302;PMS7003;32029;51.358;5.628;2024-01-30T09:08:17;15.33;15.33;10.00
46302;PMS7003;32029;51.358;5.628;2024-01-30T09:10:44;14.67;9.67;6.00
46302;PMS7003;32029;51.358;5.628;2024-01-30T09:13:12;8.20;5.20;5.00
46302;PMS7003;32029;51.358;5.628;2024-01-30T09:15:40;13.33;12.33;10.00
46302;PMS7003;32029;51.358;5.628;2024-01-30T09:18:07;15.50;13.00;10.00
46302;PMS7003;32029;51.358;5.628;2024-01-30T09:20:54;17.00;14.00;10.00
46302;PMS7003;32029;51.358;5.628;2024-01-30T09:23:21;16.67;16.00;11.00
46302;PMS7003;32029;51.358;5.628;2024-01-30T09:25:49;12.33;12.00;9.67
46302;PMS7003;32029;51.358;5.628;2024-01-30T09:28:17;11.00;11.00;9.00
46302;PMS7003;32029;51.358;5.628;2024-01-30T09:30:44;17.33;16.33;10.33
46302;PMS7003;32029;51.358;5.628;2024-01-30T09:33:11;15.67;15.67;10.00
46302;PMS7003;32029;51.358;5.628;2024-01-30T09:35:37;14.67;13.33;11.00
46302;PMS7003;32029;51.358;5.628;2024-01-30T09:38:04;16.33;13.00;11.00
46302;PMS7003;32029;51.358;5.628;2024-01-30T09:40:31;14.67;12.00;9.00
46302;PMS7003;32029;51.358;5.628;2024-01-30T09:42:58;14.00;10.00;8.33
46302;PMS7003;32029;51.358;5.628;2024-01-30T09:45:28;18.33;13.00;9.67
46302;PMS7003;32029;51.358;5.628;2024-01-30T09:47:58;14.60;11.40;8.20
46302;PMS7003;32029;51.358;5.628;2024-01-30T09:50:25;17.00;14.00;9.00
46302;PMS7003;32029;51.358;5.628;2024-01-30T09:55:30;11.00;11.00;9.00
46302;PMS7003;32029;51.358;5.628;2024-01-30T09:57:57;16.67;13.33;10.00
46302;PMS7003;32029;51.358;5.628;2024-01-30T10:00:24;17.00;14.50;12.00
46302;PMS7003;32029;51.358;5.628;2024-01-30T10:02:53;12.00;11.00;9.67
46302;PMS7003;32029;51.358;5.628;2024-01-30T10:05:20;14.00;11.67;8.67
46302;PMS7003;32029;51.358;5.628;2024-01-30T10:07:54;14.33;13.33;11.00
46302;PMS7003;32029;51.358;5.628;2024-01-30T10:10:23;18.00;14.67;10.00
46302;PMS7003;32029;51.358;5.628;2024-01-30T10:12:50;17.00;14.00;10.67
46302;PMS7003;32029;51.358;5.628;2024-01-30T10:15:17;13.00;13.00;10.00
46302;PMS7003;32029;51.358;5.628;2024-01-30T10:17:45;17.33;16.33;12.00
46302;PMS7003;32029;51.358;5.628;2024-01-30T10:20:12;13.00;12.67;10.00
46302;PMS7003;32029;51.358;5.628;2024-01-30T10:22:40;15.67;14.00;11.33
46302;PMS7003;32029;51.358;5.628;2024-01-30T10:25:10;11.00;11.00;9.33
46302;PMS7003;32029;51.358;5.628;2024-01-30T10:27:39;12.00;12.00;9.67
46302;PMS7003;32029;51.358;5.628;2024-01-30T10:30:07;16.33;16.00;11.00
46302;PMS7003;32029;51.358;5.628;2024-01-30T10:32:34;12.33;12.33;9.67
46302;PMS7003;32029;51.358;5.628;2024-01-30T10:35:01;13.33;13.00;10.00
46302;PMS7003;32029;51.358;5.628;2024-01-30T10:37:28;15.67;14.67;11.33
46302;PMS7003;32029;51.358;5.628;2024-01-30T10:39:59;14.00;14.00;12.00
46302;PMS7003;32029;51.358;5.628;2024-01-30T10:42:33;14.00;13.00;11.00
46302;PMS7003;32029;51.358;5.628;2024-01-30T10:45:06;19.33;14.33;11.00
46302;PMS7003;32029;51.358;5.628;2024-01-30T10:47:35;11.00;10.00;7.00
46302;PMS7003;32029;51.358;5.628;2024-01-30T10:50:05;17.33;13.00;11.00
46302;PMS7003;32029;51.358;5.628;2024-01-30T10:52:35;14.33;12.00;10.00
46302;PMS7003;32029;51.358;5.628;2024-01-30T10:55:03;14.33;13.00;10.67
46302;PMS7003;32029;51.358;5.628;2024-01-30T10:57:33;15.67;13.33;10.33
46302;PMS7003;32029;51.358;5.628;2024-01-30T11:00:03;17.00;13.33;10.67
46302;PMS7003;32029;51.358;5.628;2024-01-30T11:02:40;19.00;17.50;12.00
46302;PMS7003;32029;51.358;5.628;2024-01-30T11:05:08;14.33;12.67;10.00
46302;PMS7003;32029;51.358;5.628;2024-01-30T11:07:35;16.00;14.67;11.00
46302;PMS7003;32029;51.358;5.628;2024-01-30T11:10:03;14.67;13.33;11.00
46302;PMS7003;32029;51.358;5.628;2024-01-30T11:12:31;14.00;14.00;11.00
46302;PMS7003;32029;51.358;5.628;2024-01-30T11:17:43;12.67;12.67;8.67
46302;PMS7003;32029;51.358;5.628;2024-01-30T11:20:11;18.67;15.33;11.00
46302;PMS7003;32029;51.358;5.628;2024-01-30T11:22:42;11.40;11.40;9.40
46302;PMS7003;32029;51.358;5.628;2024-01-30T11:25:14;19.00;15.00;11.00
46302;PMS7003;32029;51.358;5.628;2024-01-30T11:27:42;15.67;14.33;11.00
46302;PMS7003;32029;51.358;5.628;2024-01-30T11:30:10;20.33;18.33;13.33
46302;PMS7003;32029;51.358;5.628;2024-01-30T11:32:37;14.67;13.67;11.00
46302;PMS7003;32029;51.358;5.628;2024-01-30T11:35:04;19.00;15.33;11.00
46302;PMS7003;32029;51.358;5.628;2024-01-30T11:37:32;13.67;12.33;10.00
46302;PMS7003;32029;51.358;5.628;2024-01-30T11:40:04;12.00;11.00;7.00
46302;PMS7003;32029;51.358;5.628;2024-01-30T11:42:31;15.67;15.67;13.00
46302;PMS7003;32029;51.358;5.628;2024-01-30T11:44:59;17.00;16.00;12.00
46302;PMS7003;32029;51.358;5.628;2024-01-30T11:47:29;21.00;16.50;11.00
46302;PMS7003;32029;51.358;5.628;2024-01-30T11:49:57;15.33;15.00;12.00
46302;PMS7003;32029;51.358;5.628;2024-01-30T11:52:24;14.00;11.67;8.00
46302;PMS7003;32029;51.358;5.628;2024-01-30T11:54:51;12.20;12.20;8.40
46302;PMS7003;32029;51.358;5.628;2024-01-30T11:57:19;16.00;14.00;12.00
46302;PMS7003;32029;51.358;5.628;2024-01-30T11:59:46;17.67;14.33;9.67
46302;PMS7003;32029;51.358;5.628;2024-01-30T12:02:16;13.33;13.00;10.00
46302;PMS7003;32029;51.358;5.628;2024-01-30T12:04:43;14.00;14.00;12.00
46302;PMS7003;32029;51.358;5.628;2024-01-30T12:07:11;16.00;14.50;11.00
46302;PMS7003;32029;51.358;5.628;2024-01-30T12:09:42;20.33;15.33;13.00
46302;PMS7003;32029;51.358;5.628;2024-01-30T12:12:09;14.67;12.67;9.67
46302;PMS7003;32029;51.358;5.628;2024-01-30T12:14:41;21.00;19.00;11.00
46302;PMS7003;32029;51.358;5.628;2024-01-30T12:17:08;16.00;15.00;11.67
46302;PMS7003;32029;51.358;5.628;2024-01-30T12:19:35;14.00;12.67;9.00
46302;PMS7003;32029;51.358;5.628;2024-01-30T12:22:02;13.67;12.33;10.67
46302;PMS7003;32029;51.358;5.628;2024-01-30T12:24:30;7.40;6.60;4.20
46302;PMS7003;32029;51.358;5.628;2024-01-30T12:26:58;10.00;10.00;7.00
46302;PMS7003;32029;51.358;5.628;2024-01-30T12:29:25;10.67;10.00;6.00
46302;PMS7003;32029;51.358;5.628;2024-01-30T12:31:53;10.40;10.40;7.00
46302;PMS7003;32029;51.358;5.628;2024-01-30T12:34:21;14.67;8.33;5.00
46302;PMS7003;32029;51.358;5.628;2024-01-30T12:36:49;7.00;7.00;6.00
46302;PMS7003;32029;51.358;5.628;2024-01-30T12:39:17;12.20;9.00;7.00
46302;PMS7003;32029;51.358;5.628;2024-01-30T12:41:45;8.80;7.00;6.20
46302;PMS7003;32029;51.358;5.628;2024-01-30T12:44:13;9.00;7.60;5.20
46302;PMS7003;32029;51.358;5.628;2024-01-30T12:46:42;7.20;7.00;6.00
46302;PMS7003;32029;51.358;5.628;2024-01-30T12:49:09;7.00;7.00;5.40
46302;PMS7003;32029;51.358;5.628;2024-01-30T12:51:36;7.67;7.67;6.00
46302;PMS7003;32029;51.358;5.628;2024-01-30T12:54:06;6.00;4.00;4.00
46302;PMS7003;32029;51.358;5.628;2024-01-30T12:56:34;5.00;5.00;4.00
46302;PMS7003;32029;51.358;5.628;2024-01-30T12:59:00;5.00;5.00;4.00
46302;PMS7003;32029;51.358;5.628;2024-01-30T13:01:27;4.00;4.00;3.00
46302;PMS7003;32029;51.358;5.628;2024-01-30T13:03:54;3.00;3.00;3.00
46302;PMS7003;32029;51.358;5.628;2024-01-30T13:06:23;1.00;1.00;0.67
46302;PMS7003;32029;51.358;5.628;2024-01-30T13:08:50;3.00;2.00;2.00
46302;PMS7003;32029;51.358;5.628;2024-01-30T13:11:16;2.00;2.00;2.00
46302;PMS7003;32029;51.358;5.628;2024-01-30T13:13:43;2.00;2.00;1.67
46302;PMS7003;32029;51.358;5.628;2024-01-30T13:16:10;0.67;0.67;0.67
46302;PMS7003;32029;51.358;5.628;2024-01-30T13:18:37;1.00;1.00;1.00
46302;PMS7003;32029;51.358;5.628;2024-01-30T13:21:03;1.00;1.00;0.33
46302;PMS7003;32029;51.358;5.628;2024-01-30T13:23:30;1.67;1.00;0.00
46302;PMS7003;32029;51.358;5.628;2024-01-30T13:25:57;1.00;1.00;1.00
46302;PMS7003;32029;51.358;5.628;2024-01-30T13:28:25;1.33;0.00;0.00
46302;PMS7003;32029;51.358;5.628;2024-01-30T13:30:52;0.00;0.00;0.00
46302;PMS7003;32029;51.358;5.628;2024-01-30T13:33:18;0.00;0.00;0.00
46302;PMS7003;32029;51.358;5.628;2024-01-30T13:35:51;0.00;0.00;0.00
46302;PMS7003;32029;51.358;5.628;2024-01-30T13:38:18;0.00;0.00;0.00
46302;PMS7003;32029;51.358;5.628;2024-01-30T13:40:45;0.00;0.00;0.00
46302;PMS7003;32029;51.358;5.628;2024-01-30T13:43:12;0.00;0.00;0.00
46302;PMS7003;32029;51.358;5.628;2024-01-30T13:45:41;1.00;0.00;0.00
46302;PMS7003;32029;51.358;5.628;2024-01-30T13:48:11;0.00;0.00;0.00
46302;PMS7003;32029;51.358;5.628;2024-01-30T13:50:38;0.00;0.00;0.00
46302;PMS7003;32029;51.358;5.628;2024-01-30T13:53:08;0.00;0.00;0.00
46302;PMS7003;32029;51.358;5.628;2024-01-30T13:55:34;0.00;0.00;0.00
46302;PMS7003;32029;51.358;5.628;2024-01-30T13:58:01;0.00;0.00;0.00
46302;PMS7003;32029;51.358;5.628;2024-01-30T14:00:34;0.00;0.00;0.00